Time;durP1;ratioP1;P1;durP2;ratioP2;P2;SDS_P1;SDS_P2;PMS_P1;PMS_P2;Temp;Humidity;BMP_temperature;BMP_pressure;BME280_temperature;BME280_humidity;BME280_pressure;Samples;Min_cycle;Max_cycle;Signal;HPM_P1;HPM_P2
2023/03/31 00:01:26;;;;;;;22.20;7.40;;;13.50;99.90;;;;;;4999994;28;20038;-75
2023/03/31 00:04:00;;;;;;;21.13;8.30;;;13.50;99.90;;;;;;5033550;28;20029;-75
2023/03/31 00:06:27;;;;;;;20.55;8.05;;;13.50;99.90;;;;;;5034206;28;20034;-74
2023/03/31 00:08:53;;;;;;;24.25;8.27;;;13.50;99.90;;;;;;5032998;28;20389;-74
2023/03/31 00:11:20;;;;;;;22.45;7.28;;;13.50;99.90;;;;;;5015787;28;20041;-74
2023/03/31 00:13:46;;;;;;;26.15;8.70;;;13.50;99.90;;;;;;5001028;28;20026;-75
2023/03/31 00:16:12;;;;;;;21.95;7.30;;;13.50;99.90;;;;;;5013698;28;20042;-75
2023/03/31 00:18:49;;;;;;;23.27;7.75;;;13.60;99.90;;;;;;5014010;28;20025;-74
2023/03/31 00:21:23;;;;;;;22.70;7.95;;;13.50;99.90;;;;;;4997857;28;20037;-74
2023/03/31 00:23:54;;;;;;;28.95;8.23;;;13.60;99.90;;;;;;5012700;28;20037;-75
2023/03/31 00:26:21;;;;;;;28.05;7.70;;;13.60;99.90;;;;;;4995828;28;20034;-75
2023/03/31 00:28:48;;;;;;;31.17;8.25;;;13.60;99.90;;;;;;4996665;28;20030;-74
2023/03/31 00:31:14;;;;;;;29.52;8.32;;;13.60;99.90;;;;;;4996071;28;20026;-75
2023/03/31 00:33:40;;;;;;;22.60;7.70;;;13.60;99.90;;;;;;5012757;28;20045;-75
2023/03/31 00:36:07;;;;;;;26.65;7.65;;;13.60;99.90;;;;;;4988385;28;20371;-74
2023/03/31 00:38:33;;;;;;;27.63;7.82;;;13.70;99.90;;;;;;4978684;28;20491;-75
2023/03/31 00:40:59;;;;;;;27.85;7.90;;;13.70;99.90;;;;;;5003649;28;20033;-75
2023/03/31 00:43:28;;;;;;;31.63;7.72;;;13.60;99.90;;;;;;4979436;28;20413;-74
2023/03/31 00:45:59;;;;;;;35.30;8.57;;;13.60;99.90;;;;;;5019104;28;20026;-75
2023/03/31 00:48:26;;;;;;;31.15;8.27;;;13.60;99.90;;;;;;5003314;28;20022;-74
2023/03/31 00:50:56;;;;;;;35.08;7.72;;;13.70;99.90;;;;;;5008861;28;20039;-75
2023/03/31 00:53:25;;;;;;;32.25;8.65;;;13.60;99.90;;;;;;4992254;28;20042;-74
2023/03/31 00:55:53;;;;;;;34.70;9.27;;;13.60;99.90;;;;;;5009055;28;20496;-74
2023/03/31 00:58:19;;;;;;;31.63;8.43;;;13.50;99.90;;;;;;4976673;28;20403;-74
2023/03/31 01:00:51;;;;;;;35.83;9.48;;;13.60;99.90;;;;;;4992184;28;20405;-75
2023/03/31 01:03:18;;;;;;;37.17;8.60;;;13.60;99.90;;;;;;4992353;28;20031;-75
2023/03/31 01:05:46;;;;;;;32.15;8.80;;;13.60;99.90;;;;;;4992523;28;20463;-75
2023/03/31 01:08:15;;;;;;;37.88;11.07;;;13.60;99.90;;;;;;4976282;28;20046;-75
2023/03/31 01:10:44;;;;;;;36.20;9.15;;;13.60;99.90;;;;;;4992416;28;20038;-75
2023/03/31 01:13:10;;;;;;;37.30;8.80;;;13.60;99.90;;;;;;4997679;28;20463;-75
2023/03/31 01:15:36;;;;;;;40.67;10.57;;;13.60;99.90;;;;;;5014718;28;20030;-75
2023/03/31 01:18:04;;;;;;;47.80;8.75;;;13.60;99.90;;;;;;5031480;28;20038;-75
2023/03/31 01:20:43;;;;;;;41.65;9.77;;;13.50;99.90;;;;;;5031505;28;20022;-74
2023/03/31 01:23:52;;;;;;;47.83;9.48;;;13.50;99.90;;;;;;5007473;28;20045;-74
2023/03/31 01:26:21;;;;;;;36.47;7.82;;;13.50;99.90;;;;;;4989583;28;20046;-74
2023/03/31 01:28:53;;;;;;;50.28;9.65;;;13.50;99.90;;;;;;4993302;28;20026;-75
2023/03/31 01:31:41;;;;;;;37.90;9.57;;;13.50;99.90;;;;;;4992770;28;20033;-75
2023/03/31 01:34:58;;;;;;;41.65;9.13;;;13.50;99.90;;;;;;4991871;28;20038;-75
2023/03/31 01:37:27;;;;;;;50.05;10.70;;;13.40;99.90;;;;;;4971091;28;20050;-74
2023/03/31 01:40:06;;;;;;;45.03;9.27;;;13.40;99.90;;;;;;4971593;28;20039;-75
2023/03/31 01:42:42;;;;;;;35.47;9.57;;;13.40;99.90;;;;;;4971518;28;20035;-75
2023/03/31 01:45:17;;;;;;;48.22;10.98;;;13.40;99.90;;;;;;4986299;28;20071;-75
2023/03/31 01:47:57;;;;;;;43.28;11.25;;;13.40;99.90;;;;;;4992820;28;20031;-75
2023/03/31 01:50:30;;;;;;;42.58;10.48;;;13.40;99.90;;;;;;4975813;28;20027;-75
2023/03/31 01:53:03;;;;;;;45.17;10.43;;;13.40;99.90;;;;;;4974102;28;20034;-75
2023/03/31 01:56:08;;;;;;;41.45;9.65;;;13.40;99.90;;;;;;4975080;28;20174;-75
2023/03/31 01:58:39;;;;;;;46.90;11.18;;;13.40;99.90;;;;;;4990850;28;20043;-74
2023/03/31 02:01:28;;;;;;;49.75;11.38;;;13.40;99.90;;;;;;4958575;28;20034;-75
2023/03/31 02:03:59;;;;;;;44.42;9.70;;;13.40;99.90;;;;;;4936166;29;20541;-75
2023/03/31 02:06:28;;;;;;;41.75;9.93;;;13.40;99.90;;;;;;4936029;29;20035;-75
2023/03/31 02:09:00;;;;;;;44.45;9.93;;;13.40;99.90;;;;;;4936215;29;20051;-75
2023/03/31 02:11:26;;;;;;;47.78;9.85;;;13.40;99.90;;;;;;4936091;29;20128;-75
2023/03/31 02:13:54;;;;;;;41.35;9.27;;;13.40;99.90;;;;;;4920372;29;20051;-75
2023/03/31 02:16:23;;;;;;;49.08;9.75;;;13.40;99.90;;;;;;4932172;28;20036;-76
2023/03/31 02:18:51;;;;;;;52.65;11.38;;;13.40;99.90;;;;;;4932849;29;20047;-75
2023/03/31 02:21:18;;;;;;;41.03;10.70;;;13.30;99.90;;;;;;4932086;29;20039;-75
2023/03/31 02:23:44;;;;;;;49.00;10.32;;;13.30;99.90;;;;;;4935991;29;20050;-75
2023/03/31 02:26:15;;;;;;;52.22;11.40;;;13.30;99.90;;;;;;4920298;29;20424;-76
2023/03/31 02:28:41;;;;;;;66.15;12.02;;;13.30;99.90;;;;;;4938705;29;20050;-75
2023/03/31 02:31:20;;;;;;;58.00;11.63;;;13.30;99.90;;;;;;4923478;29;20392;-75
2023/03/31 02:33:46;;;;;;;34.42;10.05;;;13.20;99.90;;;;;;4940038;29;20039;-75
2023/03/31 02:36:13;;;;;;;60.53;11.57;;;13.20;99.90;;;;;;4923269;29;20112;-75
2023/03/31 02:39:01;;;;;;;56.38;11.52;;;13.30;99.90;;;;;;4939623;29;20042;-74
2023/03/31 02:41:27;;;;;;;54.30;11.98;;;13.20;99.90;;;;;;4982122;28;20034;-76
2023/03/31 02:43:53;;;;;;;53.67;12.43;;;13.20;99.90;;;;;;5014615;28;20049;-75
2023/03/31 02:46:19;;;;;;;51.55;12.95;;;13.20;99.90;;;;;;4982024;28;20033;-76
2023/03/31 02:48:50;;;;;;;51.25;11.38;;;13.20;99.90;;;;;;5028354;28;20033;-75
2023/03/31 02:51:41;;;;;;;54.67;11.23;;;13.20;99.90;;;;;;5034073;28;20036;-76
2023/03/31 02:54:26;;;;;;;51.53;11.10;;;13.20;99.90;;;;;;5035394;28;20408;-74
2023/03/31 02:57:18;;;;;;;44.47;11.77;;;13.20;99.90;;;;;;5034398;28;20025;-74
2023/03/31 02:59:53;;;;;;;47.90;11.73;;;13.10;99.90;;;;;;5034030;28;20049;-73
2023/03/31 03:02:22;;;;;;;36.80;9.30;;;13.00;99.90;;;;;;5034864;28;20060;-72
2023/03/31 03:04:57;;;;;;;31.40;7.28;;;12.80;99.90;;;;;;5035025;28;20033;-72
2023/03/31 03:07:45;;;;;;;20.10;6.18;;;12.60;99.90;;;;;;5035142;28;20033;-72
2023/03/31 03:10:23;;;;;;;21.00;6.97;;;12.40;99.90;;;;;;5034022;28;20044;-72
2023/03/31 03:13:14;;;;;;;20.63;5.95;;;12.30;99.90;;;;;;5027433;28;20522;-71
2023/03/31 03:16:04;;;;;;;21.05;5.90;;;12.30;99.90;;;;;;5013762;28;20033;-72
2023/03/31 03:18:30;;;;;;;22.52;6.43;;;12.30;99.90;;;;;;4999854;28;20394;-72
2023/03/31 03:20:56;;;;;;;20.55;6.32;;;12.30;99.90;;;;;;5014225;28;20037;-72
2023/03/31 03:23:23;;;;;;;29.60;8.00;;;12.30;99.90;;;;;;5014960;28;20470;-72
2023/03/31 03:25:49;;;;;;;39.38;8.88;;;12.30;99.90;;;;;;5015245;28;20030;-72
2023/03/31 03:28:16;;;;;;;26.08;7.35;;;12.30;99.90;;;;;;5014029;28;20038;-72
2023/03/31 03:30:42;;;;;;;43.17;8.63;;;12.40;99.90;;;;;;5013323;28;20380;-71
2023/03/31 03:33:08;;;;;;;41.03;9.05;;;12.40;99.90;;;;;;4980552;28;20033;-72
2023/03/31 03:35:35;;;;;;;48.42;8.65;;;12.40;99.90;;;;;;5014081;28;20025;-72
2023/03/31 03:38:01;;;;;;;48.47;10.73;;;12.40;99.90;;;;;;5013696;28;20061;-71
2023/03/31 03:40:27;;;;;;;50.30;10.68;;;12.40;99.90;;;;;;5012266;28;20034;-72
2023/03/31 03:42:53;;;;;;;54.40;9.20;;;12.40;99.90;;;;;;5014711;28;20485;-72
2023/03/31 03:45:19;;;;;;;57.45;11.55;;;12.40;99.90;;;;;;5014226;28;20026;-71
2023/03/31 03:47:45;;;;;;;42.67;10.02;;;12.40;99.90;;;;;;5014319;28;20383;-72
2023/03/31 03:50:12;;;;;;;51.90;10.68;;;12.50;99.90;;;;;;5012888;28;20040;-72
2023/03/31 03:52:38;;;;;;;51.97;9.98;;;12.40;99.90;;;;;;5014543;28;20050;-71
2023/03/31 03:55:05;;;;;;;56.13;10.13;;;12.50;99.90;;;;;;5014503;28;20379;-72
2023/03/31 03:57:31;;;;;;;56.75;11.43;;;12.50;99.90;;;;;;5014347;28;20022;-72
2023/03/31 03:59:57;;;;;;;40.47;8.95;;;12.50;99.90;;;;;;4997173;28;20034;-72
2023/03/31 04:02:24;;;;;;;37.15;9.57;;;12.50;99.90;;;;;;5031893;28;20486;-72
2023/03/31 04:04:50;;;;;;;43.60;9.38;;;12.50;99.90;;;;;;5033096;28;20037;-72
2023/03/31 04:07:16;;;;;;;35.28;8.45;;;12.50;99.90;;;;;;5034131;28;20470;-72
2023/03/31 04:09:42;;;;;;;41.75;10.07;;;12.40;99.90;;;;;;5034185;28;20497;-72
2023/03/31 04:12:08;;;;;;;34.03;8.82;;;12.40;99.90;;;;;;5014395;28;20036;-72
2023/03/31 04:14:34;;;;;;;30.92;8.55;;;12.40;99.90;;;;;;5014108;28;20386;-72
2023/03/31 04:17:01;;;;;;;31.02;8.73;;;12.40;99.90;;;;;;5012384;28;20045;-72
2023/03/31 04:19:27;;;;;;;40.70;8.38;;;12.40;99.90;;;;;;5013019;28;20046;-72
2023/03/31 04:22:01;;;;;;;33.88;8.48;;;12.40;99.90;;;;;;5013872;28;20498;-72
2023/03/31 04:24:31;;;;;;;41.15;9.95;;;12.40;99.90;;;;;;4997628;28;20046;-72
2023/03/31 04:26:58;;;;;;;45.77;10.23;;;12.40;99.90;;;;;;5014029;28;20467;-72
2023/03/31 04:29:27;;;;;;;58.60;10.55;;;12.40;99.90;;;;;;5012820;28;20391;-73
2023/03/31 04:31:57;;;;;;;44.22;9.60;;;12.50;99.90;;;;;;5013095;28;20038;-73
2023/03/31 04:34:25;;;;;;;50.17;9.65;;;12.50;99.90;;;;;;4996982;28;20033;-73
2023/03/31 04:36:54;;;;;;;44.67;10.57;;;12.50;99.90;;;;;;4996636;28;20042;-72
2023/03/31 04:39:29;;;;;;;44.25;11.18;;;12.50;99.90;;;;;;4996732;28;20038;-72
2023/03/31 04:41:56;;;;;;;37.63;9.98;;;12.50;99.90;;;;;;5012483;28;20022;-72
2023/03/31 04:44:23;;;;;;;45.05;11.38;;;12.60;99.90;;;;;;5013752;28;20037;-72
2023/03/31 04:46:49;;;;;;;40.88;9.88;;;12.50;99.90;;;;;;4995376;28;20041;-72
2023/03/31 04:49:15;;;;;;;51.55;11.40;;;12.60;99.90;;;;;;5012357;28;20037;-72
2023/03/31 04:51:41;;;;;;;46.95;10.32;;;12.60;99.90;;;;;;4995623;28;20487;-72
2023/03/31 04:54:07;;;;;;;50.00;11.73;;;12.60;99.90;;;;;;5011938;28;20049;-72
2023/03/31 04:56:33;;;;;;;55.10;12.68;;;12.60;99.90;;;;;;5013370;28;20041;-72
2023/03/31 04:58:59;;;;;;;47.20;12.90;;;12.60;99.90;;;;;;5012200;28;20041;-73
2023/03/31 05:01:25;;;;;;;36.28;11.13;;;12.70;99.90;;;;;;5022157;28;20037;-72
2023/03/31 05:03:52;;;;;;;49.03;10.77;;;12.60;99.90;;;;;;5032843;28;20037;-72
2023/03/31 05:06:18;;;;;;;45.50;10.80;;;12.60;99.90;;;;;;5033052;28;20041;-72
2023/03/31 05:08:44;;;;;;;37.15;9.52;;;12.60;99.90;;;;;;5015351;28;20037;-73
2023/03/31 05:11:10;;;;;;;40.03;10.57;;;12.60;99.90;;;;;;5032776;28;20029;-72
2023/03/31 05:13:36;;;;;;;37.70;9.65;;;12.50;99.90;;;;;;5017840;28;20030;-73
2023/03/31 05:16:11;;;;;;;48.72;10.88;;;12.50;99.90;;;;;;5012281;28;20041;-73
2023/03/31 05:18:37;;;;;;;41.50;9.55;;;12.50;99.90;;;;;;5011779;28;20391;-73
2023/03/31 05:21:13;;;;;;;55.10;11.27;;;12.50;99.90;;;;;;5012812;28;20356;-73
2023/03/31 05:23:39;;;;;;;61.20;11.88;;;12.50;99.90;;;;;;5011674;28;20061;-73
2023/03/31 05:26:06;;;;;;;43.65;11.32;;;12.50;99.90;;;;;;5012924;28;20029;-73
2023/03/31 05:28:33;;;;;;;49.00;10.23;;;12.40;99.90;;;;;;5012830;28;20026;-72
2023/03/31 05:31:00;;;;;;;37.80;10.77;;;12.40;99.90;;;;;;5012177;28;20041;-72
2023/03/31 05:33:27;;;;;;;40.00;9.63;;;12.30;99.90;;;;;;5012769;28;20415;-72
2023/03/31 05:35:53;;;;;;;23.95;7.55;;;12.30;99.90;;;;;;5011803;28;20022;-72
2023/03/31 05:38:20;;;;;;;24.98;7.78;;;12.20;99.90;;;;;;5012678;28;20042;-72
2023/03/31 05:40:47;;;;;;;26.15;7.43;;;12.20;99.90;;;;;;5012576;28;20021;-72
2023/03/31 05:43:13;;;;;;;29.38;6.93;;;12.20;99.90;;;;;;5011484;28;20363;-71
2023/03/31 05:45:39;;;;;;;25.80;7.88;;;12.10;99.90;;;;;;5011934;28;20475;-72
2023/03/31 05:48:05;;;;;;;27.80;6.97;;;12.10;99.90;;;;;;5011312;28;20040;-72
2023/03/31 05:50:31;;;;;;;31.92;7.00;;;12.10;99.90;;;;;;4994839;28;20045;-72
2023/03/31 05:52:58;;;;;;;26.92;7.63;;;12.10;99.90;;;;;;5011407;28;20033;-72
2023/03/31 05:55:24;;;;;;;20.60;7.82;;;12.10;99.90;;;;;;5012639;28;20022;-72
2023/03/31 05:57:50;;;;;;;23.08;6.97;;;12.20;99.90;;;;;;5012269;28;20030;-72
2023/03/31 06:00:17;;;;;;;28.92;7.22;;;12.20;99.90;;;;;;5014150;28;20029;-71
2023/03/31 06:02:43;;;;;;;33.38;8.88;;;12.20;99.90;;;;;;5031249;28;20037;-72
2023/03/31 06:05:09;;;;;;;32.65;8.27;;;12.20;99.90;;;;;;5032021;28;20033;-72
2023/03/31 06:07:35;;;;;;;30.23;7.30;;;12.20;99.90;;;;;;5014725;28;20036;-72
2023/03/31 06:10:02;;;;;;;24.77;7.35;;;12.20;99.90;;;;;;5032036;28;20029;-73
2023/03/31 06:12:28;;;;;;;37.70;8.98;;;12.20;99.90;;;;;;5025920;28;20416;-73
2023/03/31 06:14:54;;;;;;;39.65;9.55;;;12.10;99.90;;;;;;5012410;28;20060;-72
2023/03/31 06:17:20;;;;;;;31.95;8.65;;;12.20;99.90;;;;;;5010654;28;20030;-72
2023/03/31 06:19:46;;;;;;;32.08;14.52;;;12.20;99.90;;;;;;5012224;28;20038;-73
2023/03/31 06:22:12;;;;;;;40.88;9.77;;;12.20;99.90;;;;;;5010977;28;20061;-72
2023/03/31 06:24:38;;;;;;;47.40;10.02;;;12.20;99.90;;;;;;5011008;28;20037;-72
2023/03/31 06:27:05;;;;;;;41.92;10.18;;;12.20;99.90;;;;;;4994242;28;20034;-72
2023/03/31 06:29:31;;;;;;;37.88;9.85;;;12.30;99.90;;;;;;5010982;28;20031;-73
2023/03/31 06:31:57;;;;;;;39.05;8.75;;;12.40;99.90;;;;;;5010534;28;20056;-73
2023/03/31 06:34:23;;;;;;;42.03;9.23;;;12.40;99.90;;;;;;5012237;28;20467;-73
2023/03/31 06:36:50;;;;;;;39.65;8.70;;;12.40;99.90;;;;;;5012307;28;20026;-73
2023/03/31 06:39:16;;;;;;;38.95;8.45;;;12.40;99.90;;;;;;5010836;28;20049;-73
2023/03/31 06:41:42;;;;;;;41.28;9.50;;;12.40;99.90;;;;;;4993827;28;20037;-73
2023/03/31 06:44:08;;;;;;;30.48;9.88;;;12.50;99.90;;;;;;5011046;28;20053;-73
2023/03/31 06:46:34;;;;;;;39.65;8.90;;;12.50;99.90;;;;;;5011584;28;20030;-73
2023/03/31 06:49:00;;;;;;;33.70;8.60;;;12.50;99.90;;;;;;5026719;28;20034;-73
2023/03/31 06:51:26;;;;;;;36.17;8.68;;;12.50;99.90;;;;;;5030593;28;20032;-73
2023/03/31 06:53:52;;;;;;;36.15;8.05;;;12.50;99.90;;;;;;5030265;28;20037;-73
2023/03/31 06:56:18;;;;;;;31.00;8.23;;;12.60;99.90;;;;;;5030291;28;20029;-73
2023/03/31 06:58:45;;;;;;;23.48;7.18;;;12.60;99.90;;;;;;5030516;28;20042;-73
2023/03/31 07:01:11;;;;;;;33.67;8.25;;;12.60;99.90;;;;;;5029865;28;20037;-73
2023/03/31 07:03:37;;;;;;;30.80;7.20;;;12.50;99.90;;;;;;5030591;28;20470;-73
2023/03/31 07:06:03;;;;;;;30.75;7.88;;;12.60;99.90;;;;;;5030418;28;20040;-73
2023/03/31 07:08:29;;;;;;;27.50;6.60;;;12.50;99.90;;;;;;5031608;28;20060;-73
2023/03/31 07:10:56;;;;;;;32.28;7.07;;;12.60;99.90;;;;;;5030170;28;20477;-73
2023/03/31 07:13:22;;;;;;;37.60;8.05;;;12.60;99.90;;;;;;4999137;28;20134;-73
2023/03/31 07:15:49;;;;;;;28.55;6.80;;;12.60;99.90;;;;;;4994172;28;20418;-73
2023/03/31 07:18:15;;;;;;;26.50;7.63;;;12.60;99.90;;;;;;5010781;28;20050;-73
2023/03/31 07:20:42;;;;;;;31.73;7.90;;;12.70;99.90;;;;;;4995539;28;20037;-73
2023/03/31 07:23:08;;;;;;;27.60;8.63;;;12.70;99.90;;;;;;4998105;28;20471;-73
2023/03/31 07:25:34;;;;;;;31.50;7.65;;;12.70;99.90;;;;;;4997513;28;20037;-73
2023/03/31 07:28:01;;;;;;;30.67;7.82;;;12.80;99.90;;;;;;4997106;28;20057;-73
2023/03/31 07:30:27;;;;;;;29.30;7.82;;;12.80;99.90;;;;;;5013478;28;20033;-74
2023/03/31 07:32:54;;;;;;;23.08;7.57;;;12.80;99.90;;;;;;5013549;28;20053;-73
2023/03/31 07:35:20;;;;;;;26.40;7.22;;;12.80;99.90;;;;;;4997220;28;20044;-73
2023/03/31 07:37:47;;;;;;;30.02;7.85;;;12.90;99.90;;;;;;4997549;28;20041;-73
2023/03/31 07:40:24;;;;;;;27.70;6.95;;;12.90;99.90;;;;;;5013293;28;20082;-73
2023/03/31 07:42:51;;;;;;;27.75;7.20;;;13.00;99.90;;;;;;4982029;28;20034;-73
2023/03/31 07:45:18;;;;;;;29.92;13.52;;;13.00;99.90;;;;;;5013059;28;20033;-73
2023/03/31 07:47:45;;;;;;;29.65;7.22;;;13.10;99.90;;;;;;5002178;28;20026;-74
2023/03/31 07:50:11;;;;;;;31.38;6.50;;;13.20;99.90;;;;;;5016936;28;20491;-74
2023/03/31 07:52:38;;;;;;;27.70;7.40;;;13.30;99.90;;;;;;5034647;28;20021;-74
2023/03/31 07:55:05;;;;;;;42.17;8.10;;;13.30;99.90;;;;;;5016469;28;20478;-74
2023/03/31 07:57:31;;;;;;;27.60;6.53;;;13.30;99.90;;;;;;5034309;28;20025;-74
2023/03/31 07:59:57;;;;;;;34.38;8.77;;;13.30;99.90;;;;;;5034198;28;20033;-74
2023/03/31 08:02:23;;;;;;;30.63;7.55;;;13.30;99.90;;;;;;5016096;28;20029;-74
2023/03/31 08:04:49;;;;;;;29.85;9.70;;;13.20;99.90;;;;;;5034209;28;20036;-74
2023/03/31 08:07:16;;;;;;;28.15;7.50;;;13.20;99.90;;;;;;5032928;28;20494;-74
2023/03/31 08:09:43;;;;;;;27.65;7.63;;;13.10;99.90;;;;;;5000176;28;20379;-74
2023/03/31 08:12:09;;;;;;;34.53;8.52;;;13.10;99.90;;;;;;5014496;28;20021;-74
2023/03/31 08:14:35;;;;;;;39.47;8.50;;;13.10;99.90;;;;;;5013174;28;20037;-74
2023/03/31 08:17:02;;;;;;;39.97;8.57;;;13.20;99.90;;;;;;5028981;28;20391;-74
2023/03/31 08:19:28;;;;;;;36.38;8.65;;;13.40;99.90;;;;;;5014071;28;20048;-75
2023/03/31 08:21:54;;;;;;;24.17;6.53;;;13.40;99.90;;;;;;5013814;28;20510;-75
2023/03/31 08:24:20;;;;;;;33.55;7.38;;;13.50;99.90;;;;;;5029115;28;20499;-75
2023/03/31 08:26:46;;;;;;;31.90;7.95;;;13.40;99.90;;;;;;5011956;28;20049;-75
2023/03/31 08:29:13;;;;;;;25.20;7.15;;;13.50;99.90;;;;;;5013837;28;20049;-75
2023/03/31 08:31:39;;;;;;;31.42;7.50;;;13.60;99.90;;;;;;5012377;28;20040;-75
2023/03/31 08:34:05;;;;;;;27.58;7.07;;;13.80;99.90;;;;;;5012450;28;20467;-75
2023/03/31 08:36:32;;;;;;;32.88;7.70;;;13.90;99.90;;;;;;5012562;28;20026;-75
2023/03/31 08:38:58;;;;;;;30.85;8.30;;;14.00;99.90;;;;;;5028790;28;20038;-75
2023/03/31 08:41:35;;;;;;;26.95;7.05;;;14.10;99.90;;;;;;5029172;28;20029;-75
2023/03/31 08:44:10;;;;;;;37.85;7.68;;;14.30;99.90;;;;;;4996232;28;20042;-76
2023/03/31 08:46:37;;;;;;;24.70;7.10;;;14.40;99.90;;;;;;5029622;28;20053;-75
2023/03/31 08:49:03;;;;;;;23.98;6.68;;;14.40;99.90;;;;;;5045029;28;20038;-75
2023/03/31 08:51:57;;;;;;;33.35;9.95;;;14.50;99.90;;;;;;5016129;28;20040;-75
2023/03/31 08:54:34;;;;;;;30.45;12.48;;;14.70;99.90;;;;;;5031087;28;20049;-74
2023/03/31 08:57:01;;;;;;;19.17;6.28;;;14.70;99.90;;;;;;5015975;28;20021;-74
2023/03/31 08:59:32;;;;;;;20.10;7.07;;;14.60;99.90;;;;;;4998912;28;20045;-74
2023/03/31 09:02:23;;;;;;;25.63;8.88;;;14.70;99.90;;;;;;5031516;28;20056;-74
2023/03/31 09:05:15;;;;;;;26.75;7.00;;;14.90;99.90;;;;;;5032972;28;20033;-73
2023/03/31 09:07:46;;;;;;;29.38;7.55;;;15.10;99.90;;;;;;5013750;28;20040;-74
2023/03/31 09:10:24;;;;;;;28.73;6.53;;;15.10;99.90;;;;;;5013981;28;20033;-74
2023/03/31 09:13:05;;;;;;;27.42;9.52;;;15.20;99.90;;;;;;5006650;28;20041;-74
2023/03/31 09:15:59;;;;;;;25.08;6.85;;;15.20;99.90;;;;;;5010669;28;20041;-74
2023/03/31 09:18:34;;;;;;;30.58;7.90;;;15.10;99.90;;;;;;5010761;28;20108;-74
2023/03/31 09:21:34;;;;;;;29.35;8.18;;;15.00;99.90;;;;;;5010540;28;20049;-74
2023/03/31 09:24:18;;;;;;;28.80;7.15;;;14.90;99.90;;;;;;4994332;28;20089;-74
2023/03/31 09:26:56;;;;;;;30.55;8.68;;;14.80;99.90;;;;;;4995817;28;20030;-74
2023/03/31 09:30:00;;;;;;;25.80;7.35;;;14.70;99.90;;;;;;5010688;28;20034;-75
2023/03/31 09:32:30;;;;;;;28.95;7.15;;;14.60;99.90;;;;;;4978055;28;20042;-74
2023/03/31 09:35:00;;;;;;;26.25;6.65;;;14.70;99.90;;;;;;4958505;28;20035;-75
2023/03/31 09:37:29;;;;;;;50.60;27.52;;;14.60;99.90;;;;;;4974513;28;20049;-74
2023/03/31 09:39:58;;;;;;;24.08;7.60;;;14.50;99.90;;;;;;4958761;28;20046;-74
2023/03/31 09:42:24;;;;;;;26.23;6.75;;;14.20;99.90;;;;;;4958850;28;20543;-74
2023/03/31 09:44:50;;;;;;;27.17;7.18;;;13.90;99.90;;;;;;4975369;28;20058;-74
2023/03/31 09:47:25;;;;;;;26.92;7.70;;;13.60;99.90;;;;;;5009660;28;20033;-74
2023/03/31 09:49:51;;;;;;;34.45;7.70;;;13.60;99.90;;;;;;4995423;28;20022;-74
2023/03/31 09:53:07;;;;;;;30.88;8.23;;;13.60;99.90;;;;;;5011382;28;20041;-75
2023/03/31 09:55:41;;;;;;;33.25;7.63;;;13.50;99.90;;;;;;5003749;28;20026;-74
2023/03/31 09:58:12;;;;;;;28.67;7.57;;;13.50;99.90;;;;;;5011457;28;20034;-74
2023/03/31 10:00:43;;;;;;;23.52;7.82;;;13.50;99.90;;;;;;4999487;28;20506;-74
2023/03/31 10:03:12;;;;;;;21.20;8.35;;;13.40;99.90;;;;;;5014393;28;20040;-74
2023/03/31 10:05:49;;;;;;;22.50;7.20;;;13.40;99.90;;;;;;5030734;28;20386;-74
2023/03/31 10:08:18;;;;;;;19.73;6.78;;;13.20;99.90;;;;;;5014883;28;20052;-74
2023/03/31 10:10:50;;;;;;;19.88;7.03;;;13.20;99.90;;;;;;5032033;28;20052;-74
2023/03/31 10:13:19;;;;;;;29.48;7.60;;;13.30;99.90;;;;;;5019583;28;20037;-74
2023/03/31 10:15:45;;;;;;;26.08;8.60;;;13.50;99.90;;;;;;5010779;28;20029;-74
2023/03/31 10:18:13;;;;;;;22.77;7.45;;;13.70;99.90;;;;;;5010997;28;20030;-74
2023/03/31 10:20:43;;;;;;;24.00;7.25;;;13.80;99.90;;;;;;4994543;28;20050;-74
2023/03/31 10:23:17;;;;;;;24.55;7.53;;;13.90;99.90;;;;;;5010911;28;20061;-77
2023/03/31 10:25:45;;;;;;;31.63;8.05;;;14.00;99.90;;;;;;4995129;28;20384;-77
2023/03/31 10:28:12;;;;;;;34.28;10.02;;;14.10;99.90;;;;;;5011314;28;20471;-74
2023/03/31 10:30:40;;;;;;;22.95;7.05;;;14.20;99.90;;;;;;4994465;28;20026;-74
2023/03/31 10:33:12;;;;;;;20.05;7.53;;;14.30;99.90;;;;;;5011094;28;20375;-74
2023/03/31 10:35:38;;;;;;;24.27;6.82;;;14.30;99.90;;;;;;4978385;28;20040;-74
2023/03/31 10:38:13;;;;;;;24.92;7.00;;;14.20;99.90;;;;;;4994771;28;20025;-74
2023/03/31 10:40:40;;;;;;;27.58;7.82;;;14.20;99.90;;;;;;4994825;28;20045;-74
2023/03/31 10:43:17;;;;;;;20.42;7.57;;;14.30;99.90;;;;;;5010601;28;20042;-74
2023/03/31 10:45:55;;;;;;;22.50;5.97;;;14.50;99.90;;;;;;4994304;28;20029;-77
2023/03/31 10:48:28;;;;;;;13.93;5.03;;;14.60;99.90;;;;;;4978278;28;20038;-75
2023/03/31 10:50:58;;;;;;;22.15;6.82;;;14.60;99.90;;;;;;5014775;28;20383;-75
2023/03/31 10:53:24;;;;;;;23.87;11.77;;;14.80;99.90;;;;;;4998529;28;20022;-75
2023/03/31 10:56:14;;;;;;;16.02;6.55;;;15.10;99.90;;;;;;5014771;28;20018;-75
2023/03/31 10:58:58;;;;;;;19.02;6.95;;;15.00;99.90;;;;;;4997827;28;20042;-75
2023/03/31 11:01:44;;;;;;;21.63;6.40;;;15.10;99.90;;;;;;5026377;28;20509;-75
2023/03/31 11:04:42;;;;;;;18.60;6.57;;;15.40;99.90;;;;;;5033849;28;20042;-75
2023/03/31 11:07:12;;;;;;;15.00;5.03;;;15.30;99.90;;;;;;5035276;28;20018;-75
2023/03/31 11:09:51;;;;;;;12.05;5.47;;;15.00;99.90;;;;;;5034152;28;20033;-75
2023/03/31 11:12:17;;;;;;;16.50;5.88;;;14.70;99.90;;;;;;5030919;28;20017;-75
2023/03/31 11:14:52;;;;;;;20.67;6.20;;;14.80;99.90;;;;;;5015457;28;20037;-75
2023/03/31 11:17:26;;;;;;;20.33;6.07;;;15.10;99.90;;;;;;5014625;28;20034;-75
2023/03/31 11:19:55;;;;;;;18.30;6.72;;;15.30;99.90;;;;;;5014098;28;20042;-75
2023/03/31 11:22:52;;;;;;;26.33;7.90;;;15.50;99.90;;;;;;5015110;28;20068;-75
2023/03/31 11:25:52;;;;;;;21.25;5.40;;;15.70;99.90;;;;;;4994468;28;20514;-75
2023/03/31 11:28:21;;;;;;;29.70;6.60;;;15.70;99.90;;;;;;4993380;28;20034;-75
2023/03/31 11:31:02;;;;;;;22.05;6.20;;;15.60;99.90;;;;;;4992830;28;20130;-75
2023/03/31 11:33:30;;;;;;;20.30;6.68;;;15.50;99.90;;;;;;5008184;28;20038;-75
2023/03/31 11:36:11;;;;;;;24.50;6.88;;;15.40;99.90;;;;;;4993211;28;20034;-75
2023/03/31 11:38:49;;;;;;;13.48;5.35;;;15.20;99.90;;;;;;5009521;28;20077;-74
2023/03/31 11:41:21;;;;;;;26.05;7.18;;;15.00;99.90;;;;;;4992815;28;20038;-75
2023/03/31 11:43:49;;;;;;;20.98;6.03;;;14.70;99.90;;;;;;5009063;28;20034;-75
2023/03/31 11:46:26;;;;;;;25.33;6.20;;;14.60;99.90;;;;;;5008618;28;20479;-75
2023/03/31 11:48:54;;;;;;;15.27;7.07;;;14.60;99.90;;;;;;4981517;28;20041;-77
2023/03/31 11:51:41;;;;;;;23.95;7.40;;;14.50;99.90;;;;;;4992838;28;20038;-74
2023/03/31 11:54:11;;;;;;;16.55;5.90;;;14.50;99.90;;;;;;4946828;28;20053;-75
2023/03/31 11:56:38;;;;;;;17.33;9.88;;;14.70;99.90;;;;;;4976821;28;20038;-74
2023/03/31 11:59:05;;;;;;;17.08;6.25;;;14.90;99.90;;;;;;4960575;28;20423;-74
2023/03/31 12:01:51;;;;;;;17.35;6.07;;;14.90;99.90;;;;;;4942583;28;20058;-74
2023/03/31 12:04:27;;;;;;;17.52;6.18;;;14.80;99.90;;;;;;4962406;28;20107;-74
2023/03/31 12:06:53;;;;;;;15.23;5.22;;;14.50;99.90;;;;;;4994787;28;20045;-74
2023/03/31 12:09:34;;;;;;;14.70;4.72;;;14.30;99.90;;;;;;5009758;28;20392;-74
2023/03/31 12:12:06;;;;;;;15.13;5.70;;;14.10;99.90;;;;;;4995412;28;20026;-74
2023/03/31 12:14:41;;;;;;;18.80;5.82;;;14.10;99.90;;;;;;5014316;28;20045;-74
2023/03/31 12:17:12;;;;;;;24.75;6.15;;;14.10;99.90;;;;;;5012938;28;20034;-74
2023/03/31 12:19:49;;;;;;;17.60;5.30;;;14.30;99.90;;;;;;5029647;28;20042;-74
2023/03/31 12:22:39;;;;;;;23.90;5.85;;;14.50;99.90;;;;;;5030017;28;20038;-74
2023/03/31 12:25:14;;;;;;;21.15;5.53;;;14.60;99.90;;;;;;5012449;28;20049;-74
2023/03/31 12:27:48;;;;;;;21.73;6.28;;;14.80;99.90;;;;;;5010644;28;20026;-75
2023/03/31 12:30:26;;;;;;;23.92;6.40;;;14.90;99.90;;;;;;4992623;28;20034;-74
2023/03/31 12:33:06;;;;;;;20.27;7.00;;;15.10;99.90;;;;;;4993353;28;20030;-74
2023/03/31 12:35:49;;;;;;;21.70;6.93;;;15.20;99.90;;;;;;4994698;28;20039;-74
2023/03/31 12:38:53;;;;;;;22.35;6.03;;;15.30;99.90;;;;;;4993186;28;20463;-75
2023/03/31 12:41:23;;;;;;;28.00;7.75;;;15.30;99.90;;;;;;4992927;28;20047;-74
2023/03/31 12:44:01;;;;;;;15.88;6.93;;;15.30;99.90;;;;;;4992773;28;20053;-74
2023/03/31 12:46:50;;;;;;;26.17;6.70;;;15.10;99.90;;;;;;5009070;28;20022;-75
2023/03/31 12:49:58;;;;;;;25.20;6.45;;;14.90;99.90;;;;;;5028540;28;20478;-75
2023/03/31 12:52:41;;;;;;;20.58;5.53;;;14.90;99.90;;;;;;5032031;28;20474;-74
2023/03/31 12:55:40;;;;;;;15.32;5.07;;;15.10;99.90;;;;;;5017128;28;20040;-74
2023/03/31 12:58:21;;;;;;;21.15;7.43;;;15.30;99.90;;;;;;5013996;28;20048;-75